sensor_id;sensor_type;location;lat;lon;timestamp;P1;durP1;ratioP1;P2;durP2;ratioP2
23432;SDS011;41331;45.412;10.992;2022-07-11T00:01:09;3.25;;;0.90;;
23432;SDS011;41331;45.412;10.992;2022-07-11T00:03:37;2.38;;;0.73;;
23432;SDS011;41331;45.412;10.992;2022-07-11T00:06:04;4.90;;;0.80;;
23432;SDS011;41331;45.412;10.992;2022-07-11T00:08:32;5.18;;;0.90;;
23432;SDS011;41331;45.412;10.992;2022-07-11T00:10:59;6.45;;;0.70;;
23432;SDS011;41331;45.412;10.992;2022-07-11T00:13:27;3.60;;;0.75;;
23432;SDS011;41331;45.412;10.992;2022-07-11T00:15:54;4.97;;;0.80;;
23432;SDS011;41331;45.412;10.992;2022-07-11T00:18:22;2.47;;;0.90;;
23432;SDS011;41331;45.412;10.992;2022-07-11T00:20:51;2.85;;;1.10;;
23432;SDS011;41331;45.412;10.992;2022-07-11T00:23:21;5.40;;;0.77;;
23432;SDS011;41331;45.412;10.992;2022-07-11T00:25:48;2.03;;;0.70;;
23432;SDS011;41331;45.412;10.992;2022-07-11T00:28:16;2.70;;;0.82;;
23432;SDS011;41331;45.412;10.992;2022-07-11T00:30:43;4.35;;;1.00;;
23432;SDS011;41331;45.412;10.992;2022-07-11T00:33:12;3.38;;;0.75;;
23432;SDS011;41331;45.412;10.992;2022-07-11T00:35:39;5.13;;;0.90;;
23432;SDS011;41331;45.412;10.992;2022-07-11T00:38:07;4.22;;;0.82;;
23432;SDS011;41331;45.412;10.992;2022-07-11T00:40:34;2.90;;;0.70;;
23432;SDS011;41331;45.412;10.992;2022-07-11T00:43:04;3.33;;;0.63;;
23432;SDS011;41331;45.412;10.992;2022-07-11T00:45:32;2.13;;;0.70;;
23432;SDS011;41331;45.412;10.992;2022-07-11T00:47:59;3.45;;;0.75;;
23432;SDS011;41331;45.412;10.992;2022-07-11T00:50:26;3.08;;;0.80;;
23432;SDS011;41331;45.412;10.992;2022-07-11T00:52:54;4.18;;;0.90;;
23432;SDS011;41331;45.412;10.992;2022-07-11T00:55:23;2.72;;;0.93;;
23432;SDS011;41331;45.412;10.992;2022-07-11T00:57:51;4.10;;;1.00;;
23432;SDS011;41331;45.412;10.992;2022-07-11T01:00:19;6.00;;;0.90;;
23432;SDS011;41331;45.412;10.992;2022-07-11T01:02:47;5.95;;;1.00;;
23432;SDS011;41331;45.412;10.992;2022-07-11T01:05:14;1.60;;;0.80;;
23432;SDS011;41331;45.412;10.992;2022-07-11T01:07:42;4.78;;;1.20;;
23432;SDS011;41331;45.412;10.992;2022-07-11T01:10:09;2.25;;;0.77;;
23432;SDS011;41331;45.412;10.992;2022-07-11T01:12:36;3.95;;;1.00;;
23432;SDS011;41331;45.412;10.992;2022-07-11T01:15:04;5.70;;;0.80;;
23432;SDS011;41331;45.412;10.992;2022-07-11T01:17:34;1.55;;;0.60;;
23432;SDS011;41331;45.412;10.992;2022-07-11T01:20:02;4.15;;;0.70;;
23432;SDS011;41331;45.412;10.992;2022-07-11T01:22:29;2.22;;;0.82;;
23432;SDS011;41331;45.412;10.992;2022-07-11T01:25:04;2.33;;;0.80;;
23432;SDS011;41331;45.412;10.992;2022-07-11T01:27:33;2.92;;;1.00;;
23432;SDS011;41331;45.412;10.992;2022-07-11T01:30:03;4.20;;;0.85;;
23432;SDS011;41331;45.412;10.992;2022-07-11T01:32:32;2.28;;;0.90;;
23432;SDS011;41331;45.412;10.992;2022-07-11T01:34:59;3.83;;;0.77;;
23432;SDS011;41331;45.412;10.992;2022-07-11T01:37:26;5.57;;;0.80;;
23432;SDS011;41331;45.412;10.992;2022-07-11T01:39:54;7.40;;;1.00;;
23432;SDS011;41331;45.412;10.992;2022-07-11T01:42:21;3.33;;;0.90;;
23432;SDS011;41331;45.412;10.992;2022-07-11T01:44:48;3.10;;;0.80;;
23432;SDS011;41331;45.412;10.992;2022-07-11T01:47:16;2.33;;;0.80;;
23432;SDS011;41331;45.412;10.992;2022-07-11T01:49:43;4.68;;;0.88;;
23432;SDS011;41331;45.412;10.992;2022-07-11T01:52:10;4.32;;;0.93;;
23432;SDS011;41331;45.412;10.992;2022-07-11T01:54:38;2.38;;;0.70;;
23432;SDS011;41331;45.412;10.992;2022-07-11T01:57:05;3.90;;;0.88;;
23432;SDS011;41331;45.412;10.992;2022-07-11T01:59:32;3.42;;;0.75;;
23432;SDS011;41331;45.412;10.992;2022-07-11T02:02:00;2.45;;;0.80;;
23432;SDS011;41331;45.412;10.992;2022-07-11T02:04:27;2.47;;;0.90;;
23432;SDS011;41331;45.412;10.992;2022-07-11T02:06:55;5.35;;;0.98;;
23432;SDS011;41331;45.412;10.992;2022-07-11T02:09:22;2.58;;;0.80;;
23432;SDS011;41331;45.412;10.992;2022-07-11T02:11:50;6.10;;;1.10;;
23432;SDS011;41331;45.412;10.992;2022-07-11T02:14:18;2.70;;;0.80;;
23432;SDS011;41331;45.412;10.992;2022-07-11T02:16:45;3.03;;;0.93;;
23432;SDS011;41331;45.412;10.992;2022-07-11T02:19:13;4.63;;;0.80;;
23432;SDS011;41331;45.412;10.992;2022-07-11T02:21:40;2.30;;;0.68;;
23432;SDS011;41331;45.412;10.992;2022-07-11T02:24:08;4.60;;;0.90;;
23432;SDS011;41331;45.412;10.992;2022-07-11T02:26:35;3.25;;;0.80;;
23432;SDS011;41331;45.412;10.992;2022-07-11T02:29:03;3.72;;;0.90;;
23432;SDS011;41331;45.412;10.992;2022-07-11T02:31:30;4.22;;;1.08;;
23432;SDS011;41331;45.412;10.992;2022-07-11T02:33:57;3.40;;;0.90;;
23432;SDS011;41331;45.412;10.992;2022-07-11T02:36:25;4.53;;;0.82;;
23432;SDS011;41331;45.412;10.992;2022-07-11T02:38:52;4.43;;;0.77;;
23432;SDS011;41331;45.412;10.992;2022-07-11T02:41:20;4.05;;;0.90;;
23432;SDS011;41331;45.412;10.992;2022-07-11T02:43:47;3.00;;;0.90;;
23432;SDS011;41331;45.412;10.992;2022-07-11T02:46:14;3.80;;;1.00;;
23432;SDS011;41331;45.412;10.992;2022-07-11T02:48:42;5.18;;;0.90;;
23432;SDS011;41331;45.412;10.992;2022-07-11T02:51:09;6.22;;;1.00;;
23432;SDS011;41331;45.412;10.992;2022-07-11T02:53:37;4.38;;;0.93;;
23432;SDS011;41331;45.412;10.992;2022-07-11T02:56:04;3.38;;;0.90;;
23432;SDS011;41331;45.412;10.992;2022-07-11T02:58:33;2.67;;;0.80;;
23432;SDS011;41331;45.412;10.992;2022-07-11T03:01:00;4.60;;;0.80;;
23432;SDS011;41331;45.412;10.992;2022-07-11T03:03:28;2.50;;;0.80;;
23432;SDS011;41331;45.412;10.992;2022-07-11T03:05:57;3.42;;;0.80;;
23432;SDS011;41331;45.412;10.992;2022-07-11T03:08:24;3.45;;;0.90;;
23432;SDS011;41331;45.412;10.992;2022-07-11T03:10:52;2.78;;;0.85;;
23432;SDS011;41331;45.412;10.992;2022-07-11T03:13:19;3.47;;;1.02;;
23432;SDS011;41331;45.412;10.992;2022-07-11T03:15:46;3.50;;;1.00;;
23432;SDS011;41331;45.412;10.992;2022-07-11T03:18:14;5.15;;;0.98;;
23432;SDS011;41331;45.412;10.992;2022-07-11T03:20:41;3.60;;;0.88;;
23432;SDS011;41331;45.412;10.992;2022-07-11T03:23:09;4.28;;;0.90;;
23432;SDS011;41331;45.412;10.992;2022-07-11T03:25:37;2.00;;;0.77;;
23432;SDS011;41331;45.412;10.992;2022-07-11T03:28:05;4.05;;;0.80;;
23432;SDS011;41331;45.412;10.992;2022-07-11T03:30:35;3.10;;;0.82;;
23432;SDS011;41331;45.412;10.992;2022-07-11T03:33:02;2.15;;;0.90;;
23432;SDS011;41331;45.412;10.992;2022-07-11T03:35:30;3.90;;;0.88;;
23432;SDS011;41331;45.412;10.992;2022-07-11T03:38:09;4.38;;;1.00;;
23432;SDS011;41331;45.412;10.992;2022-07-11T03:40:38;4.25;;;0.90;;
23432;SDS011;41331;45.412;10.992;2022-07-11T03:43:06;4.93;;;1.20;;
23432;SDS011;41331;45.412;10.992;2022-07-11T03:45:33;4.82;;;1.13;;
23432;SDS011;41331;45.412;10.992;2022-07-11T03:48:01;3.67;;;1.00;;
23432;SDS011;41331;45.412;10.992;2022-07-11T03:50:29;5.70;;;1.40;;
23432;SDS011;41331;45.412;10.992;2022-07-11T03:52:57;4.20;;;1.30;;
23432;SDS011;41331;45.412;10.992;2022-07-11T03:55:25;3.75;;;1.33;;
23432;SDS011;41331;45.412;10.992;2022-07-11T03:57:53;4.32;;;1.30;;
23432;SDS011;41331;45.412;10.992;2022-07-11T04:00:20;7.50;;;1.40;;
23432;SDS011;41331;45.412;10.992;2022-07-11T04:02:48;2.90;;;1.00;;
23432;SDS011;41331;45.412;10.992;2022-07-11T04:05:15;4.43;;;1.20;;
23432;SDS011;41331;45.412;10.992;2022-07-11T04:07:43;5.55;;;1.27;;
23432;SDS011;41331;45.412;10.992;2022-07-11T04:10:10;3.88;;;1.20;;
23432;SDS011;41331;45.412;10.992;2022-07-11T04:12:38;5.00;;;1.02;;
23432;SDS011;41331;45.412;10.992;2022-07-11T04:15:06;5.75;;;1.40;;
23432;SDS011;41331;45.412;10.992;2022-07-11T04:17:33;2.80;;;1.20;;
23432;SDS011;41331;45.412;10.992;2022-07-11T04:20:01;2.95;;;1.23;;
23432;SDS011;41331;45.412;10.992;2022-07-11T04:22:30;17.58;;;1.90;;
23432;SDS011;41331;45.412;10.992;2022-07-11T04:24:57;1.95;;;0.93;;
23432;SDS011;41331;45.412;10.992;2022-07-11T04:27:25;5.18;;;1.30;;
23432;SDS011;41331;45.412;10.992;2022-07-11T04:29:56;6.28;;;1.33;;
23432;SDS011;41331;45.412;10.992;2022-07-11T04:32:24;5.38;;;1.10;;
23432;SDS011;41331;45.412;10.992;2022-07-11T04:34:51;5.05;;;1.40;;
23432;SDS011;41331;45.412;10.992;2022-07-11T04:37:19;4.85;;;1.25;;
23432;SDS011;41331;45.412;10.992;2022-07-11T04:39:46;2.65;;;1.08;;
23432;SDS011;41331;45.412;10.992;2022-07-11T04:42:15;3.63;;;1.10;;
23432;SDS011;41331;45.412;10.992;2022-07-11T04:44:42;3.55;;;1.20;;
23432;SDS011;41331;45.412;10.992;2022-07-11T04:47:12;7.30;;;1.10;;
23432;SDS011;41331;45.412;10.992;2022-07-11T04:49:40;3.13;;;1.10;;
23432;SDS011;41331;45.412;10.992;2022-07-11T04:52:07;5.07;;;0.95;;
23432;SDS011;41331;45.412;10.992;2022-07-11T04:54:35;4.53;;;0.88;;
23432;SDS011;41331;45.412;10.992;2022-07-11T04:57:02;5.38;;;1.00;;
23432;SDS011;41331;45.412;10.992;2022-07-11T04:59:30;3.72;;;0.85;;
23432;SDS011;41331;45.412;10.992;2022-07-11T05:01:57;4.22;;;1.00;;
23432;SDS011;41331;45.412;10.992;2022-07-11T05:04:25;3.25;;;1.00;;
23432;SDS011;41331;45.412;10.992;2022-07-11T05:06:52;5.72;;;1.08;;
23432;SDS011;41331;45.412;10.992;2022-07-11T05:09:23;2.65;;;0.90;;
23432;SDS011;41331;45.412;10.992;2022-07-11T05:11:50;3.42;;;1.17;;
23432;SDS011;41331;45.412;10.992;2022-07-11T05:14:17;2.78;;;1.10;;
23432;SDS011;41331;45.412;10.992;2022-07-11T05:16:45;3.38;;;1.10;;
23432;SDS011;41331;45.412;10.992;2022-07-11T05:19:12;6.97;;;1.15;;
23432;SDS011;41331;45.412;10.992;2022-07-11T05:21:40;6.43;;;1.00;;
23432;SDS011;41331;45.412;10.992;2022-07-11T05:24:07;6.25;;;1.20;;
23432;SDS011;41331;45.412;10.992;2022-07-11T05:26:35;2.20;;;1.08;;
23432;SDS011;41331;45.412;10.992;2022-07-11T05:29:03;3.47;;;1.00;;
23432;SDS011;41331;45.412;10.992;2022-07-11T05:31:30;3.40;;;1.17;;
23432;SDS011;41331;45.412;10.992;2022-07-11T05:34:00;3.47;;;1.13;;
23432;SDS011;41331;45.412;10.992;2022-07-11T05:36:30;3.75;;;1.20;;
23432;SDS011;41331;45.412;10.992;2022-07-11T05:38:58;5.78;;;1.08;;
23432;SDS011;41331;45.412;10.992;2022-07-11T05:41:25;3.75;;;1.10;;
23432;SDS011;41331;45.412;10.992;2022-07-11T05:43:53;8.60;;;1.67;;
23432;SDS011;41331;45.412;10.992;2022-07-11T05:46:20;6.15;;;1.20;;
23432;SDS011;41331;45.412;10.992;2022-07-11T05:48:47;2.90;;;1.23;;
23432;SDS011;41331;45.412;10.992;2022-07-11T05:51:22;6.43;;;1.30;;
23432;SDS011;41331;45.412;10.992;2022-07-11T05:53:49;3.75;;;1.00;;
23432;SDS011;41331;45.412;10.992;2022-07-11T05:56:17;3.15;;;1.10;;
23432;SDS011;41331;45.412;10.992;2022-07-11T05:58:44;6.00;;;1.00;;
23432;SDS011;41331;45.412;10.992;2022-07-11T06:01:12;4.35;;;1.00;;
23432;SDS011;41331;45.412;10.992;2022-07-11T06:03:39;5.20;;;1.10;;
23432;SDS011;41331;45.412;10.992;2022-07-11T06:06:07;3.55;;;1.00;;
23432;SDS011;41331;45.412;10.992;2022-07-11T06:08:37;1.98;;;1.05;;
23432;SDS011;41331;45.412;10.992;2022-07-11T06:11:08;2.47;;;1.00;;
23432;SDS011;41331;45.412;10.992;2022-07-11T06:13:44;7.80;;;1.20;;
23432;SDS011;41331;45.412;10.992;2022-07-11T06:16:12;5.90;;;1.10;;
23432;SDS011;41331;45.412;10.992;2022-07-11T06:18:40;4.32;;;1.10;;
23432;SDS011;41331;45.412;10.992;2022-07-11T06:21:08;3.25;;;1.08;;
23432;SDS011;41331;45.412;10.992;2022-07-11T06:23:36;4.63;;;1.20;;
23432;SDS011;41331;45.412;10.992;2022-07-11T06:26:03;3.55;;;1.00;;
23432;SDS011;41331;45.412;10.992;2022-07-11T06:28:32;2.28;;;1.02;;
23432;SDS011;41331;45.412;10.992;2022-07-11T06:31:00;3.40;;;1.10;;
23432;SDS011;41331;45.412;10.992;2022-07-11T06:33:29;5.07;;;1.20;;
23432;SDS011;41331;45.412;10.992;2022-07-11T06:35:56;5.90;;;1.20;;
23432;SDS011;41331;45.412;10.992;2022-07-11T06:38:24;2.65;;;1.10;;
23432;SDS011;41331;45.412;10.992;2022-07-11T06:40:51;2.63;;;1.10;;
23432;SDS011;41331;45.412;10.992;2022-07-11T06:43:19;2.80;;;1.30;;
23432;SDS011;41331;45.412;10.992;2022-07-11T06:45:47;3.92;;;1.10;;
23432;SDS011;41331;45.412;10.992;2022-07-11T06:48:15;3.08;;;1.10;;
23432;SDS011;41331;45.412;10.992;2022-07-11T06:50:42;2.67;;;1.08;;
23432;SDS011;41331;45.412;10.992;2022-07-11T06:53:10;4.25;;;1.08;;
23432;SDS011;41331;45.412;10.992;2022-07-11T06:55:38;6.40;;;1.50;;
23432;SDS011;41331;45.412;10.992;2022-07-11T06:58:06;2.70;;;1.23;;
23432;SDS011;41331;45.412;10.992;2022-07-11T07:00:50;5.40;;;1.10;;
23432;SDS011;41331;45.412;10.992;2022-07-11T07:03:18;3.25;;;1.15;;
23432;SDS011;41331;45.412;10.992;2022-07-11T07:05:47;3.92;;;1.40;;
23432;SDS011;41331;45.412;10.992;2022-07-11T07:08:17;3.58;;;1.23;;
23432;SDS011;41331;45.412;10.992;2022-07-11T07:10:44;4.43;;;1.25;;
23432;SDS011;41331;45.412;10.992;2022-07-11T07:13:12;2.55;;;1.20;;
23432;SDS011;41331;45.412;10.992;2022-07-11T07:15:39;5.22;;;1.20;;
23432;SDS011;41331;45.412;10.992;2022-07-11T07:18:07;4.35;;;1.50;;
23432;SDS011;41331;45.412;10.992;2022-07-11T07:20:34;3.40;;;1.20;;
23432;SDS011;41331;45.412;10.992;2022-07-11T07:23:02;4.00;;;1.30;;
23432;SDS011;41331;45.412;10.992;2022-07-11T07:25:29;7.25;;;1.10;;
23432;SDS011;41331;45.412;10.992;2022-07-11T07:27:56;4.53;;;1.40;;
23432;SDS011;41331;45.412;10.992;2022-07-11T07:30:24;3.78;;;1.35;;
23432;SDS011;41331;45.412;10.992;2022-07-11T07:32:52;4.18;;;1.30;;
23432;SDS011;41331;45.412;10.992;2022-07-11T07:35:19;2.63;;;1.05;;
23432;SDS011;41331;45.412;10.992;2022-07-11T07:37:47;4.38;;;1.40;;
23432;SDS011;41331;45.412;10.992;2022-07-11T07:40:14;8.35;;;1.45;;
23432;SDS011;41331;45.412;10.992;2022-07-11T07:42:41;5.10;;;1.40;;
23432;SDS011;41331;45.412;10.992;2022-07-11T07:45:11;4.78;;;1.13;;
23432;SDS011;41331;45.412;10.992;2022-07-11T07:47:39;6.07;;;1.17;;
23432;SDS011;41331;45.412;10.992;2022-07-11T07:50:07;6.43;;;1.33;;
23432;SDS011;41331;45.412;10.992;2022-07-11T07:52:34;4.28;;;1.60;;
23432;SDS011;41331;45.412;10.992;2022-07-11T07:55:02;4.97;;;1.40;;
23432;SDS011;41331;45.412;10.992;2022-07-11T07:57:30;4.22;;;1.30;;
23432;SDS011;41331;45.412;10.992;2022-07-11T07:59:57;3.78;;;1.30;;
23432;SDS011;41331;45.412;10.992;2022-07-11T08:02:43;8.27;;;1.30;;
23432;SDS011;41331;45.412;10.992;2022-07-11T08:05:11;3.90;;;1.40;;
23432;SDS011;41331;45.412;10.992;2022-07-11T08:07:39;3.65;;;1.38;;
23432;SDS011;41331;45.412;10.992;2022-07-11T08:10:06;3.85;;;1.45;;
23432;SDS011;41331;45.412;10.992;2022-07-11T08:12:34;4.38;;;1.30;;
23432;SDS011;41331;45.412;10.992;2022-07-11T08:15:02;5.30;;;1.48;;
23432;SDS011;41331;45.412;10.992;2022-07-11T08:17:29;4.47;;;1.60;;
23432;SDS011;41331;45.412;10.992;2022-07-11T08:19:57;4.90;;;1.50;;
23432;SDS011;41331;45.412;10.992;2022-07-11T08:22:25;4.50;;;1.35;;
23432;SDS011;41331;45.412;10.992;2022-07-11T08:24:53;2.97;;;1.48;;
23432;SDS011;41331;45.412;10.992;2022-07-11T08:27:20;4.60;;;1.35;;
23432;SDS011;41331;45.412;10.992;2022-07-11T08:30:05;4.60;;;1.33;;
23432;SDS011;41331;45.412;10.992;2022-07-11T08:32:38;3.83;;;1.52;;
23432;SDS011;41331;45.412;10.992;2022-07-11T08:35:07;3.63;;;1.33;;
23432;SDS011;41331;45.412;10.992;2022-07-11T08:37:35;5.20;;;1.58;;
23432;SDS011;41331;45.412;10.992;2022-07-11T08:40:03;3.45;;;1.25;;
23432;SDS011;41331;45.412;10.992;2022-07-11T08:42:31;7.97;;;1.30;;
23432;SDS011;41331;45.412;10.992;2022-07-11T08:45:04;7.32;;;1.58;;
23432;SDS011;41331;45.412;10.992;2022-07-11T08:47:32;2.70;;;1.10;;
23432;SDS011;41331;45.412;10.992;2022-07-11T08:50:00;6.50;;;1.55;;
23432;SDS011;41331;45.412;10.992;2022-07-11T08:52:31;5.32;;;1.42;;
23432;SDS011;41331;45.412;10.992;2022-07-11T08:54:59;4.05;;;1.40;;
23432;SDS011;41331;45.412;10.992;2022-07-11T08:57:27;5.32;;;1.50;;
23432;SDS011;41331;45.412;10.992;2022-07-11T08:59:54;5.60;;;1.80;;
23432;SDS011;41331;45.412;10.992;2022-07-11T09:02:23;5.85;;;1.58;;
23432;SDS011;41331;45.412;10.992;2022-07-11T09:04:52;4.25;;;1.52;;
23432;SDS011;41331;45.412;10.992;2022-07-11T09:07:20;4.30;;;1.52;;
23432;SDS011;41331;45.412;10.992;2022-07-11T09:09:49;4.07;;;1.30;;
23432;SDS011;41331;45.412;10.992;2022-07-11T09:12:16;3.25;;;1.50;;
23432;SDS011;41331;45.412;10.992;2022-07-11T09:14:47;3.42;;;1.40;;
23432;SDS011;41331;45.412;10.992;2022-07-11T09:17:19;3.45;;;1.40;;
23432;SDS011;41331;45.412;10.992;2022-07-11T09:19:53;5.43;;;1.33;;
23432;SDS011;41331;45.412;10.992;2022-07-11T09:22:20;5.65;;;1.35;;
23432;SDS011;41331;45.412;10.992;2022-07-11T09:25:10;3.15;;;1.20;;
23432;SDS011;41331;45.412;10.992;2022-07-11T09:28:00;3.78;;;1.30;;
23432;SDS011;41331;45.412;10.992;2022-07-11T09:33:08;7.50;;;1.33;;
23432;SDS011;41331;45.412;10.992;2022-07-11T09:35:41;4.47;;;1.40;;
23432;SDS011;41331;45.412;10.992;2022-07-11T09:38:13;6.75;;;1.40;;
23432;SDS011;41331;45.412;10.992;2022-07-11T09:40:44;4.28;;;1.15;;
23432;SDS011;41331;45.412;10.992;2022-07-11T09:43:13;5.30;;;1.52;;
23432;SDS011;41331;45.412;10.992;2022-07-11T09:45:41;3.80;;;1.30;;
23432;SDS011;41331;45.412;10.992;2022-07-11T09:48:10;3.90;;;1.35;;
23432;SDS011;41331;45.412;10.992;2022-07-11T09:50:38;2.63;;;1.10;;
23432;SDS011;41331;45.412;10.992;2022-07-11T09:53:09;3.42;;;1.50;;
23432;SDS011;41331;45.412;10.992;2022-07-11T09:55:39;4.03;;;1.30;;
23432;SDS011;41331;45.412;10.992;2022-07-11T09:58:17;4.43;;;1.30;;
23432;SDS011;41331;45.412;10.992;2022-07-11T10:00:45;4.30;;;1.08;;
23432;SDS011;41331;45.412;10.992;2022-07-11T10:03:13;4.03;;;1.42;;
23432;SDS011;41331;45.412;10.992;2022-07-11T10:06:00;4.07;;;1.50;;
23432;SDS011;41331;45.412;10.992;2022-07-11T10:08:27;4.65;;;1.20;;
23432;SDS011;41331;45.412;10.992;2022-07-11T10:10:55;5.10;;;1.33;;
23432;SDS011;41331;45.412;10.992;2022-07-11T10:13:23;4.22;;;1.30;;
23432;SDS011;41331;45.412;10.992;2022-07-11T10:15:51;4.00;;;1.30;;
23432;SDS011;41331;45.412;10.992;2022-07-11T10:20:59;8.13;;;1.85;;
23432;SDS011;41331;45.412;10.992;2022-07-11T10:31:28;3.45;;;1.60;;
23432;SDS011;41331;45.412;10.992;2022-07-11T10:34:17;6.55;;;1.50;;
23432;SDS011;41331;45.412;10.992;2022-07-11T10:36:46;4.80;;;1.33;;
23432;SDS011;41331;45.412;10.992;2022-07-11T10:41:45;3.88;;;1.58;;
23432;SDS011;41331;45.412;10.992;2022-07-11T10:44:15;6.63;;;1.90;;
23432;SDS011;41331;45.412;10.992;2022-07-11T10:46:43;6.95;;;2.33;;
23432;SDS011;41331;45.412;10.992;2022-07-11T10:57:13;6.10;;;1.80;;
23432;SDS011;41331;45.412;10.992;2022-07-11T10:59:55;5.50;;;1.67;;
23432;SDS011;41331;45.412;10.992;2022-07-11T11:02:24;4.97;;;1.35;;
23432;SDS011;41331;45.412;10.992;2022-07-11T11:04:57;7.60;;;1.60;;
23432;SDS011;41331;45.412;10.992;2022-07-11T11:07:29;6.97;;;1.73;;
23432;SDS011;41331;45.412;10.992;2022-07-11T11:23:30;5.18;;;1.70;;
23432;SDS011;41331;45.412;10.992;2022-07-11T11:28:35;4.72;;;1.40;;
23432;SDS011;41331;45.412;10.992;2022-07-11T11:31:04;4.95;;;1.60;;
23432;SDS011;41331;45.412;10.992;2022-07-11T11:33:34;6.85;;;1.20;;
23432;SDS011;41331;45.412;10.992;2022-07-11T11:36:09;4.75;;;1.52;;
23432;SDS011;41331;45.412;10.992;2022-07-11T11:38:37;6.50;;;1.42;;
23432;SDS011;41331;45.412;10.992;2022-07-11T11:41:08;3.65;;;1.63;;
23432;SDS011;41331;45.412;10.992;2022-07-11T11:43:36;4.50;;;1.35;;
23432;SDS011;41331;45.412;10.992;2022-07-11T11:46:04;5.55;;;1.58;;
23432;SDS011;41331;45.412;10.992;2022-07-11T11:48:33;5.57;;;1.40;;
23432;SDS011;41331;45.412;10.992;2022-07-11T11:51:05;6.07;;;1.20;;
23432;SDS011;41331;45.412;10.992;2022-07-11T11:56:25;5.80;;;1.73;;
23432;SDS011;41331;45.412;10.992;2022-07-11T11:59:01;5.10;;;1.50;;
23432;SDS011;41331;45.412;10.992;2022-07-11T12:01:35;4.80;;;1.27;;
23432;SDS011;41331;45.412;10.992;2022-07-11T12:04:06;7.30;;;1.35;;
23432;SDS011;41331;45.412;10.992;2022-07-11T12:06:38;2.30;;;1.17;;
23432;SDS011;41331;45.412;10.992;2022-07-11T12:09:11;5.00;;;1.23;;
23432;SDS011;41331;45.412;10.992;2022-07-11T12:11:43;8.55;;;1.40;;
23432;SDS011;41331;45.412;10.992;2022-07-11T12:14:12;4.60;;;1.40;;
23432;SDS011;41331;45.412;10.992;2022-07-11T12:16:42;3.05;;;1.20;;
23432;SDS011;41331;45.412;10.992;2022-07-11T12:19:21;2.88;;;1.33;;
23432;SDS011;41331;45.412;10.992;2022-07-11T12:21:51;7.35;;;1.45;;
23432;SDS011;41331;45.412;10.992;2022-07-11T12:24:24;3.33;;;1.02;;
23432;SDS011;41331;45.412;10.992;2022-07-11T12:26:55;8.93;;;1.42;;
23432;SDS011;41331;45.412;10.992;2022-07-11T12:29:24;5.22;;;1.15;;
23432;SDS011;41331;45.412;10.992;2022-07-11T12:32:10;4.68;;;1.20;;
23432;SDS011;41331;45.412;10.992;2022-07-11T12:37:07;3.13;;;1.15;;
23432;SDS011;41331;45.412;10.992;2022-07-11T12:39:39;4.38;;;1.10;;
23432;SDS011;41331;45.412;10.992;2022-07-11T12:42:20;7.70;;;1.30;;
23432;SDS011;41331;45.412;10.992;2022-07-11T12:47:36;7.18;;;1.67;;
23432;SDS011;41331;45.412;10.992;2022-07-11T12:50:18;3.90;;;1.33;;
23432;SDS011;41331;45.412;10.992;2022-07-11T12:52:56;5.43;;;1.48;;
23432;SDS011;41331;45.412;10.992;2022-07-11T12:55:31;5.53;;;1.45;;
23432;SDS011;41331;45.412;10.992;2022-07-11T12:58:06;5.40;;;1.33;;
23432;SDS011;41331;45.412;10.992;2022-07-11T13:00:37;6.82;;;1.45;;
23432;SDS011;41331;45.412;10.992;2022-07-11T13:03:07;3.97;;;1.30;;
23432;SDS011;41331;45.412;10.992;2022-07-11T13:05:55;6.75;;;1.60;;
23432;SDS011;41331;45.412;10.992;2022-07-11T13:08:24;3.38;;;1.15;;
23432;SDS011;41331;45.412;10.992;2022-07-11T13:11:15;7.95;;;1.33;;
23432;SDS011;41331;45.412;10.992;2022-07-11T13:13:48;5.95;;;1.27;;
23432;SDS011;41331;45.412;10.992;2022-07-11T13:16:16;5.57;;;1.33;;
23432;SDS011;41331;45.412;10.992;2022-07-11T13:18:45;6.47;;;1.23;;
23432;SDS011;41331;45.412;10.992;2022-07-11T13:21:14;4.47;;;1.15;;
23432;SDS011;41331;45.412;10.992;2022-07-11T13:23:44;4.50;;;1.30;;
23432;SDS011;41331;45.412;10.992;2022-07-11T13:26:12;3.78;;;1.10;;
23432;SDS011;41331;45.412;10.992;2022-07-11T13:28:39;8.43;;;1.20;;
23432;SDS011;41331;45.412;10.992;2022-07-11T13:31:07;7.00;;;1.38;;
23432;SDS011;41331;45.412;10.992;2022-07-11T13:33:40;5.82;;;1.13;;
23432;SDS011;41331;45.412;10.992;2022-07-11T13:36:09;4.18;;;1.20;;
23432;SDS011;41331;45.412;10.992;2022-07-11T13:38:37;4.47;;;1.27;;
23432;SDS011;41331;45.412;10.992;2022-07-11T13:41:05;7.28;;;1.38;;
23432;SDS011;41331;45.412;10.992;2022-07-11T13:43:43;5.57;;;1.25;;
23432;SDS011;41331;45.412;10.992;2022-07-11T13:46:11;4.63;;;1.10;;
23432;SDS011;41331;45.412;10.992;2022-07-11T13:48:39;4.50;;;1.20;;
23432;SDS011;41331;45.412;10.992;2022-07-11T13:51:09;5.22;;;1.20;;
23432;SDS011;41331;45.412;10.992;2022-07-11T13:53:37;4.07;;;1.30;;
23432;SDS011;41331;45.412;10.992;2022-07-11T13:56:05;6.65;;;1.25;;
23432;SDS011;41331;45.412;10.992;2022-07-11T13:58:33;5.85;;;1.10;;
23432;SDS011;41331;45.412;10.992;2022-07-11T14:01:01;3.38;;;1.48;;
23432;SDS011;41331;45.412;10.992;2022-07-11T14:03:31;4.90;;;1.30;;
23432;SDS011;41331;45.412;10.992;2022-07-11T14:05:59;4.03;;;1.48;;
23432;SDS011;41331;45.412;10.992;2022-07-11T14:08:26;5.45;;;1.30;;
23432;SDS011;41331;45.412;10.992;2022-07-11T14:10:54;5.47;;;1.20;;
23432;SDS011;41331;45.412;10.992;2022-07-11T14:13:21;5.78;;;1.50;;
23432;SDS011;41331;45.412;10.992;2022-07-11T14:15:49;6.55;;;1.17;;
23432;SDS011;41331;45.412;10.992;2022-07-11T14:18:17;6.22;;;1.38;;
23432;SDS011;41331;45.412;10.992;2022-07-11T14:20:44;4.07;;;1.40;;
23432;SDS011;41331;45.412;10.992;2022-07-11T14:23:12;8.43;;;1.08;;
23432;SDS011;41331;45.412;10.992;2022-07-11T14:25:40;3.35;;;1.25;;
23432;SDS011;41331;45.412;10.992;2022-07-11T14:28:09;6.18;;;1.65;;
23432;SDS011;41331;45.412;10.992;2022-07-11T14:30:37;6.13;;;1.30;;
23432;SDS011;41331;45.412;10.992;2022-07-11T14:33:04;7.93;;;1.10;;
23432;SDS011;41331;45.412;10.992;2022-07-11T14:35:31;6.05;;;1.13;;
23432;SDS011;41331;45.412;10.992;2022-07-11T14:37:59;8.55;;;1.27;;
23432;SDS011;41331;45.412;10.992;2022-07-11T14:40:27;5.85;;;1.23;;
23432;SDS011;41331;45.412;10.992;2022-07-11T14:42:55;4.25;;;1.10;;
23432;SDS011;41331;45.412;10.992;2022-07-11T14:45:23;7.13;;;1.40;;
23432;SDS011;41331;45.412;10.992;2022-07-11T14:47:50;4.68;;;1.17;;
23432;SDS011;41331;45.412;10.992;2022-07-11T14:50:19;3.75;;;1.30;;
23432;SDS011;41331;45.412;10.992;2022-07-11T14:52:46;4.55;;;1.20;;
23432;SDS011;41331;45.412;10.992;2022-07-11T14:55:17;5.00;;;1.25;;
23432;SDS011;41331;45.412;10.992;2022-07-11T14:57:45;5.03;;;1.20;;
23432;SDS011;41331;45.412;10.992;2022-07-11T15:00:15;5.78;;;1.10;;
23432;SDS011;41331;45.412;10.992;2022-07-11T15:02:46;4.72;;;1.13;;
23432;SDS011;41331;45.412;10.992;2022-07-11T15:05:32;5.00;;;1.20;;
23432;SDS011;41331;45.412;10.992;2022-07-11T15:08:00;5.97;;;1.38;;
23432;SDS011;41331;45.412;10.992;2022-07-11T15:10:45;4.90;;;1.20;;
23432;SDS011;41331;45.412;10.992;2022-07-11T15:13:31;6.07;;;1.40;;
23432;SDS011;41331;45.412;10.992;2022-07-11T15:15:59;7.53;;;1.30;;
23432;SDS011;41331;45.412;10.992;2022-07-11T15:18:26;5.97;;;1.30;;
23432;SDS011;41331;45.412;10.992;2022-07-11T15:20:54;2.67;;;1.10;;
23432;SDS011;41331;45.412;10.992;2022-07-11T15:23:21;5.68;;;1.10;;
23432;SDS011;41331;45.412;10.992;2022-07-11T15:25:51;6.68;;;1.20;;
23432;SDS011;41331;45.412;10.992;2022-07-11T15:28:22;4.97;;;1.00;;
23432;SDS011;41331;45.412;10.992;2022-07-11T15:30:59;5.75;;;1.20;;
23432;SDS011;41331;45.412;10.992;2022-07-11T15:33:27;5.70;;;1.13;;